sensor_id;sensor_type;location;lat;lon;timestamp;pressure;altitude;pressure_sealevel;temperature;humidity
15694;BME280;7947;48.834;9.132;2024-01-10T00:00:58;99042.28;;;-2.30;64.95
15694;BME280;7947;48.834;9.132;2024-01-10T00:04:01;99045.59;;;-2.36;65.71
15694;BME280;7947;48.834;9.132;2024-01-10T00:07:05;99040.84;;;-2.32;66.30
15694;BME280;7947;48.834;9.132;2024-01-10T00:10:08;99041.19;;;-2.35;66.41
15694;BME280;7947;48.834;9.132;2024-01-10T00:13:11;99040.06;;;-2.49;67.18
15694;BME280;7947;48.834;9.132;2024-01-10T00:16:14;99038.91;;;-2.38;67.42
15694;BME280;7947;48.834;9.132;2024-01-10T00:19:17;99035.06;;;-2.28;66.52
15694;BME280;7947;48.834;9.132;2024-01-10T00:22:21;99035.00;;;-2.12;66.24
15694;BME280;7947;48.834;9.132;2024-01-10T00:25:39;99037.88;;;-2.29;66.22
15694;BME280;7947;48.834;9.132;2024-01-10T00:29:20;99028.50;;;-2.32;67.44
15694;BME280;7947;48.834;9.132;2024-01-10T00:33:39;99027.97;;;-2.19;66.28
15694;BME280;7947;48.834;9.132;2024-01-10T00:41:50;99022.06;;;-2.21;65.81
15694;BME280;7947;48.834;9.132;2024-01-10T00:45:38;99025.22;;;-2.26;66.33
15694;BME280;7947;48.834;9.132;2024-01-10T00:49:15;99019.75;;;-2.16;66.07
15694;BME280;7947;48.834;9.132;2024-01-10T00:52:52;99022.19;;;-2.15;65.39
15694;BME280;7947;48.834;9.132;2024-01-10T01:13:39;99034.81;;;-2.10;65.75
15694;BME280;7947;48.834;9.132;2024-01-10T01:18:12;99034.41;;;-1.99;65.27
15694;BME280;7947;48.834;9.132;2024-01-10T01:22:08;99037.63;;;-2.12;64.92
15694;BME280;7947;48.834;9.132;2024-01-10T01:26:01;99036.28;;;-2.08;65.12
15694;BME280;7947;48.834;9.132;2024-01-10T01:30:27;99042.66;;;-2.02;64.88
15694;BME280;7947;48.834;9.132;2024-01-10T01:34:24;99045.28;;;-2.02;64.71
15694;BME280;7947;48.834;9.132;2024-01-10T01:38:17;99043.13;;;-1.99;64.81
15694;BME280;7947;48.834;9.132;2024-01-10T01:42:09;99034.84;;;-2.18;64.70
15694;BME280;7947;48.834;9.132;2024-01-10T01:46:00;99033.25;;;-2.27;66.11
15694;BME280;7947;48.834;9.132;2024-01-10T01:49:42;99026.78;;;-2.17;65.48
15694;BME280;7947;48.834;9.132;2024-01-10T01:53:13;99025.09;;;-2.02;65.59
15694;BME280;7947;48.834;9.132;2024-01-10T01:56:48;99024.00;;;-1.85;62.65
15694;BME280;7947;48.834;9.132;2024-01-10T02:00:23;99024.28;;;-1.79;58.87
15694;BME280;7947;48.834;9.132;2024-01-10T02:04:30;99024.97;;;-1.86;60.01
15694;BME280;7947;48.834;9.132;2024-01-10T02:08:26;99024.94;;;-1.77;59.74
15694;BME280;7947;48.834;9.132;2024-01-10T02:12:29;99027.38;;;-1.76;59.84
15694;BME280;7947;48.834;9.132;2024-01-10T02:16:31;99029.44;;;-1.63;58.77
15694;BME280;7947;48.834;9.132;2024-01-10T02:24:55;99016.28;;;-1.63;59.71
15694;BME280;7947;48.834;9.132;2024-01-10T02:28:23;99020.22;;;-1.59;58.87
15694;BME280;7947;48.834;9.132;2024-01-10T02:32:23;99003.66;;;-1.68;57.55
15694;BME280;7947;48.834;9.132;2024-01-10T02:48:53;99004.75;;;-2.08;57.57
15694;BME280;7947;48.834;9.132;2024-01-10T02:52:57;99002.13;;;-2.08;58.05
15694;BME280;7947;48.834;9.132;2024-01-10T02:56:20;99002.59;;;-2.04;58.59
15694;BME280;7947;48.834;9.132;2024-01-10T03:00:27;98999.69;;;-1.87;60.75
15694;BME280;7947;48.834;9.132;2024-01-10T03:08:33;98997.81;;;-1.78;60.29
15694;BME280;7947;48.834;9.132;2024-01-10T03:12:25;98992.09;;;-1.82;60.51
15694;BME280;7947;48.834;9.132;2024-01-10T03:16:05;98998.38;;;-1.83;60.90
15694;BME280;7947;48.834;9.132;2024-01-10T03:20:15;98986.91;;;-1.90;60.15
15694;BME280;7947;48.834;9.132;2024-01-10T03:24:06;98978.53;;;-1.93;61.27
15694;BME280;7947;48.834;9.132;2024-01-10T03:27:40;98985.69;;;-2.02;61.69
15694;BME280;7947;48.834;9.132;2024-01-10T03:31:19;98978.53;;;-1.93;61.50
15694;BME280;7947;48.834;9.132;2024-01-10T03:35:06;98971.03;;;-1.96;61.31
15694;BME280;7947;48.834;9.132;2024-01-10T03:38:43;98977.16;;;-2.04;61.09
15694;BME280;7947;48.834;9.132;2024-01-10T03:42:39;98977.03;;;-1.88;61.94
15694;BME280;7947;48.834;9.132;2024-01-10T03:47:03;98975.44;;;-1.74;61.02
15694;BME280;7947;48.834;9.132;2024-01-10T03:50:59;98975.50;;;-1.59;61.16
15694;BME280;7947;48.834;9.132;2024-01-10T03:54:50;98980.06;;;-1.76;59.50
15694;BME280;7947;48.834;9.132;2024-01-10T04:11:02;98988.78;;;-1.75;60.59
15694;BME280;7947;48.834;9.132;2024-01-10T04:14:37;98990.56;;;-1.99;59.44
15694;BME280;7947;48.834;9.132;2024-01-10T04:18:33;98992.38;;;-1.99;60.70
15694;BME280;7947;48.834;9.132;2024-01-10T04:22:26;98998.13;;;-1.96;58.90
15694;BME280;7947;48.834;9.132;2024-01-10T04:30:39;98989.53;;;-1.90;61.04
15694;BME280;7947;48.834;9.132;2024-01-10T04:38:27;98980.75;;;-2.05;60.65
15694;BME280;7947;48.834;9.132;2024-01-10T04:42:32;98972.22;;;-2.07;59.59
15694;BME280;7947;48.834;9.132;2024-01-10T04:46:16;98967.19;;;-2.16;60.26
15694;BME280;7947;48.834;9.132;2024-01-10T04:50:10;98980.47;;;-2.10;60.01
15694;BME280;7947;48.834;9.132;2024-01-10T04:54:01;98978.69;;;-2.09;59.61
15694;BME280;7947;48.834;9.132;2024-01-10T04:57:48;98972.16;;;-2.21;59.69
15694;BME280;7947;48.834;9.132;2024-01-10T05:05:23;98982.03;;;-2.23;60.44
15694;BME280;7947;48.834;9.132;2024-01-10T05:09:14;98981.63;;;-2.12;60.32
15694;BME280;7947;48.834;9.132;2024-01-10T05:12:17;98983.16;;;-2.18;61.11
15694;BME280;7947;48.834;9.132;2024-01-10T05:15:20;98993.66;;;-2.18;60.87
15694;BME280;7947;48.834;9.132;2024-01-10T05:18:22;98985.63;;;-1.94;62.61
15694;BME280;7947;48.834;9.132;2024-01-10T05:21:26;98993.03;;;-1.97;59.02
15694;BME280;7947;48.834;9.132;2024-01-10T05:24:29;98990.03;;;-2.17;61.48
15694;BME280;7947;48.834;9.132;2024-01-10T05:27:32;98993.28;;;-2.15;60.97
15694;BME280;7947;48.834;9.132;2024-01-10T05:30:35;98991.19;;;-2.19;60.26
15694;BME280;7947;48.834;9.132;2024-01-10T05:33:37;98984.34;;;-2.28;60.35
15694;BME280;7947;48.834;9.132;2024-01-10T05:36:42;98981.25;;;-2.32;60.70
15694;BME280;7947;48.834;9.132;2024-01-10T05:39:44;98985.81;;;-2.26;60.86
15694;BME280;7947;48.834;9.132;2024-01-10T05:42:47;98991.41;;;-2.29;60.97
15694;BME280;7947;48.834;9.132;2024-01-10T05:45:50;98990.34;;;-2.12;62.12
15694;BME280;7947;48.834;9.132;2024-01-10T05:48:53;98994.72;;;-1.82;61.01
15694;BME280;7947;48.834;9.132;2024-01-10T05:51:57;98989.25;;;-1.72;61.63
15694;BME280;7947;48.834;9.132;2024-01-10T05:55:00;98990.19;;;-1.65;61.35
15694;BME280;7947;48.834;9.132;2024-01-10T05:58:04;98994.84;;;-1.52;60.96
15694;BME280;7947;48.834;9.132;2024-01-10T06:01:07;98989.13;;;-1.56;61.39
15694;BME280;7947;48.834;9.132;2024-01-10T06:04:11;98986.38;;;-1.62;60.86
15694;BME280;7947;48.834;9.132;2024-01-10T06:07:15;98988.34;;;-1.64;61.05
15694;BME280;7947;48.834;9.132;2024-01-10T06:10:18;98999.81;;;-1.57;61.38
15694;BME280;7947;48.834;9.132;2024-01-10T06:13:21;98997.72;;;-1.62;60.89
15694;BME280;7947;48.834;9.132;2024-01-10T06:16:24;99003.66;;;-1.68;61.87
15694;BME280;7947;48.834;9.132;2024-01-10T06:19:27;99000.81;;;-1.58;62.24
15694;BME280;7947;48.834;9.132;2024-01-10T06:22:31;98997.19;;;-1.57;61.19
15694;BME280;7947;48.834;9.132;2024-01-10T06:25:34;99005.41;;;-1.60;61.51
15694;BME280;7947;48.834;9.132;2024-01-10T06:28:36;98996.09;;;-1.63;62.06
15694;BME280;7947;48.834;9.132;2024-01-10T06:31:41;99002.00;;;-1.61;62.50
15694;BME280;7947;48.834;9.132;2024-01-10T06:34:43;99001.16;;;-1.61;62.70
15694;BME280;7947;48.834;9.132;2024-01-10T06:37:48;98998.13;;;-1.73;62.20
15694;BME280;7947;48.834;9.132;2024-01-10T06:40:51;98998.47;;;-1.76;62.37
15694;BME280;7947;48.834;9.132;2024-01-10T06:43:53;99005.06;;;-1.80;62.32
15694;BME280;7947;48.834;9.132;2024-01-10T06:46:56;99011.84;;;-1.86;63.71
15694;BME280;7947;48.834;9.132;2024-01-10T06:49:59;99014.19;;;-1.91;63.82
15694;BME280;7947;48.834;9.132;2024-01-10T06:53:04;99016.03;;;-1.99;62.96
15694;BME280;7947;48.834;9.132;2024-01-10T06:56:07;99011.56;;;-1.91;63.40
15694;BME280;7947;48.834;9.132;2024-01-10T06:59:10;99008.63;;;-1.96;63.41
15694;BME280;7947;48.834;9.132;2024-01-10T07:02:13;99024.13;;;-2.09;63.23
15694;BME280;7947;48.834;9.132;2024-01-10T07:05:16;99011.75;;;-2.23;63.92
15694;BME280;7947;48.834;9.132;2024-01-10T07:08:20;99010.44;;;-2.27;64.31
15694;BME280;7947;48.834;9.132;2024-01-10T07:11:23;99017.75;;;-2.14;64.98
15694;BME280;7947;48.834;9.132;2024-01-10T07:14:28;99011.91;;;-2.24;64.00
15694;BME280;7947;48.834;9.132;2024-01-10T07:17:30;99015.59;;;-2.11;63.52
15694;BME280;7947;48.834;9.132;2024-01-10T07:20:34;99020.28;;;-2.21;64.38
15694;BME280;7947;48.834;9.132;2024-01-10T07:23:40;99029.31;;;-2.23;65.32
15694;BME280;7947;48.834;9.132;2024-01-10T07:26:44;99031.59;;;-2.20;64.76
15694;BME280;7947;48.834;9.132;2024-01-10T07:29:47;99031.09;;;-2.24;63.51
15694;BME280;7947;48.834;9.132;2024-01-10T07:32:50;99030.84;;;-2.37;64.64
15694;BME280;7947;48.834;9.132;2024-01-10T07:35:53;99031.50;;;-2.35;64.30
15694;BME280;7947;48.834;9.132;2024-01-10T07:38:57;99040.50;;;-2.29;64.00
15694;BME280;7947;48.834;9.132;2024-01-10T07:42:04;99041.47;;;-2.30;63.71
15694;BME280;7947;48.834;9.132;2024-01-10T07:45:08;99042.78;;;-2.26;65.21
15694;BME280;7947;48.834;9.132;2024-01-10T07:48:11;99048.72;;;-2.32;64.21
15694;BME280;7947;48.834;9.132;2024-01-10T07:51:14;99046.94;;;-2.40;64.93
15694;BME280;7947;48.834;9.132;2024-01-10T07:54:18;99049.88;;;-2.35;64.76
15694;BME280;7947;48.834;9.132;2024-01-10T07:57:20;99051.97;;;-2.30;65.28
15694;BME280;7947;48.834;9.132;2024-01-10T08:00:23;99055.44;;;-2.30;65.49
15694;BME280;7947;48.834;9.132;2024-01-10T08:03:26;99050.66;;;-2.26;65.12
15694;BME280;7947;48.834;9.132;2024-01-10T08:06:28;99060.34;;;-2.27;66.60
15694;BME280;7947;48.834;9.132;2024-01-10T08:09:35;99063.13;;;-2.28;66.77
15694;BME280;7947;48.834;9.132;2024-01-10T08:12:38;99061.94;;;-2.18;65.80
15694;BME280;7947;48.834;9.132;2024-01-10T08:15:42;99066.38;;;-2.18;66.23
15694;BME280;7947;48.834;9.132;2024-01-10T08:18:45;99072.09;;;-2.15;66.16
15694;BME280;7947;48.834;9.132;2024-01-10T08:21:48;99075.69;;;-2.08;65.59
15694;BME280;7947;48.834;9.132;2024-01-10T08:37:09;99083.13;;;-1.80;65.37
15694;BME280;7947;48.834;9.132;2024-01-10T08:41:02;99081.34;;;-1.57;63.93
15694;BME280;7947;48.834;9.132;2024-01-10T08:45:02;99086.25;;;-1.32;62.79
15694;BME280;7947;48.834;9.132;2024-01-10T08:48:51;99088.69;;;-1.08;62.05
15694;BME280;7947;48.834;9.132;2024-01-10T08:57:24;99085.88;;;-1.06;61.64
15694;BME280;7947;48.834;9.132;2024-01-10T09:01:19;99091.81;;;-0.89;61.45
15694;BME280;7947;48.834;9.132;2024-01-10T09:05:11;99093.91;;;-0.85;60.55
15694;BME280;7947;48.834;9.132;2024-01-10T09:08:47;99086.81;;;-0.84;60.13
15694;BME280;7947;48.834;9.132;2024-01-10T09:12:45;99093.41;;;-0.66;59.83
15694;BME280;7947;48.834;9.132;2024-01-10T09:16:16;99095.03;;;-0.79;59.52
15694;BME280;7947;48.834;9.132;2024-01-10T09:20:11;99102.56;;;-0.62;59.37
15694;BME280;7947;48.834;9.132;2024-01-10T09:23:52;99097.53;;;-0.86;57.89
15694;BME280;7947;48.834;9.132;2024-01-10T09:31:58;99098.91;;;-0.75;58.51
15694;BME280;7947;48.834;9.132;2024-01-10T09:35:36;99098.53;;;-0.87;58.97
15694;BME280;7947;48.834;9.132;2024-01-10T09:39:19;99105.00;;;-0.75;59.15
15694;BME280;7947;48.834;9.132;2024-01-10T09:43:23;99110.03;;;-0.36;57.59
15694;BME280;7947;48.834;9.132;2024-01-10T09:52:33;99102.25;;;0.35;55.20
15694;BME280;7947;48.834;9.132;2024-01-10T09:56:45;99107.22;;;1.29;51.63
15694;BME280;7947;48.834;9.132;2024-01-10T10:00:17;99095.44;;;1.32;51.98
15694;BME280;7947;48.834;9.132;2024-01-10T10:04:00;99095.78;;;1.50;51.37
15694;BME280;7947;48.834;9.132;2024-01-10T10:08:10;99095.28;;;1.67;51.04
15694;BME280;7947;48.834;9.132;2024-01-10T10:11:42;99093.09;;;1.43;51.35
15694;BME280;7947;48.834;9.132;2024-01-10T10:15:19;99097.00;;;0.77;52.23
15694;BME280;7947;48.834;9.132;2024-01-10T10:19:03;99090.41;;;0.46;53.60
15694;BME280;7947;48.834;9.132;2024-01-10T10:26:57;99081.09;;;0.29;55.37
15694;BME280;7947;48.834;9.132;2024-01-10T10:30:25;99084.19;;;0.53;55.00
15694;BME280;7947;48.834;9.132;2024-01-10T10:34:21;99083.78;;;0.56;55.70
15694;BME280;7947;48.834;9.132;2024-01-10T10:38:24;99087.38;;;0.70;55.48
15694;BME280;7947;48.834;9.132;2024-01-10T10:42:24;99079.66;;;0.68;55.03
15694;BME280;7947;48.834;9.132;2024-01-10T10:46:31;99083.28;;;1.10;54.31
15694;BME280;7947;48.834;9.132;2024-01-10T10:50:50;99081.59;;;1.02;54.81
15694;BME280;7947;48.834;9.132;2024-01-10T10:58:51;99078.66;;;3.07;49.76
15694;BME280;7947;48.834;9.132;2024-01-10T11:02:36;99074.53;;;4.21;46.11
15694;BME280;7947;48.834;9.132;2024-01-10T11:06:10;99061.03;;;5.22;45.47
15694;BME280;7947;48.834;9.132;2024-01-10T11:09:54;99049.66;;;5.76;42.27
15694;BME280;7947;48.834;9.132;2024-01-10T11:13:46;99069.72;;;4.49;45.04
15694;BME280;7947;48.834;9.132;2024-01-10T11:21:40;99059.72;;;5.31;45.65
15694;BME280;7947;48.834;9.132;2024-01-10T11:29:14;99052.88;;;6.80;41.04
15694;BME280;7947;48.834;9.132;2024-01-10T11:37:42;99045.06;;;7.20;39.29
15694;BME280;7947;48.834;9.132;2024-01-10T11:41:41;99048.56;;;7.44;38.98
15694;BME280;7947;48.834;9.132;2024-01-10T11:45:54;99048.44;;;7.27;40.53
15694;BME280;7947;48.834;9.132;2024-01-10T11:50:08;99037.50;;;7.86;38.94
15694;BME280;7947;48.834;9.132;2024-01-10T12:03:07;99032.19;;;10.25;33.94
15694;BME280;7947;48.834;9.132;2024-01-10T12:06:45;99033.16;;;11.94;31.27
15694;BME280;7947;48.834;9.132;2024-01-10T12:10:01;99021.94;;;11.65;30.94
15694;BME280;7947;48.834;9.132;2024-01-10T12:13:37;99023.44;;;12.60;30.71
15694;BME280;7947;48.834;9.132;2024-01-10T12:17:03;99023.94;;;11.12;32.43
15694;BME280;7947;48.834;9.132;2024-01-10T12:20:41;99021.06;;;10.60;33.20
15694;BME280;7947;48.834;9.132;2024-01-10T12:24:14;99026.19;;;10.18;34.45
15694;BME280;7947;48.834;9.132;2024-01-10T12:27:31;99019.88;;;10.08;33.85
15694;BME280;7947;48.834;9.132;2024-01-10T12:31:13;99034.88;;;8.99;36.85
15694;BME280;7947;48.834;9.132;2024-01-10T12:34:40;99020.53;;;9.38;36.16
15694;BME280;7947;48.834;9.132;2024-01-10T12:38:21;99030.56;;;8.81;37.05
15694;BME280;7947;48.834;9.132;2024-01-10T12:42:15;99020.38;;;9.83;35.74
15694;BME280;7947;48.834;9.132;2024-01-10T12:49:23;99028.16;;;9.30;35.54
15694;BME280;7947;48.834;9.132;2024-01-10T12:57:18;99028.59;;;8.60;37.02
15694;BME280;7947;48.834;9.132;2024-01-10T13:00:44;99030.88;;;8.40;36.86
15694;BME280;7947;48.834;9.132;2024-01-10T13:04:55;99030.34;;;7.41;39.42
15694;BME280;7947;48.834;9.132;2024-01-10T13:08:20;99029.13;;;6.49;42.29
15694;BME280;7947;48.834;9.132;2024-01-10T13:11:44;99023.56;;;5.48;44.78
15694;BME280;7947;48.834;9.132;2024-01-10T13:15:13;99026.13;;;5.37;44.83
15694;BME280;7947;48.834;9.132;2024-01-10T13:18:38;99024.63;;;4.98;45.78
15694;BME280;7947;48.834;9.132;2024-01-10T13:21:52;99031.16;;;4.71;47.10
15694;BME280;7947;48.834;9.132;2024-01-10T13:25:13;99025.69;;;4.35;48.00
15694;BME280;7947;48.834;9.132;2024-01-10T13:28:39;99021.66;;;4.57;46.61
15694;BME280;7947;48.834;9.132;2024-01-10T13:32:07;99026.06;;;4.70;47.08
15694;BME280;7947;48.834;9.132;2024-01-10T13:35:40;99030.63;;;4.25;49.81
15694;BME280;7947;48.834;9.132;2024-01-10T13:39:29;99030.63;;;3.81;49.44
15694;BME280;7947;48.834;9.132;2024-01-10T13:43:07;99038.56;;;3.81;50.21
15694;BME280;7947;48.834;9.132;2024-01-10T13:46:26;99035.81;;;4.07;49.91
15694;BME280;7947;48.834;9.132;2024-01-10T13:53:37;99043.59;;;4.02;49.70
15694;BME280;7947;48.834;9.132;2024-01-10T13:57:22;99039.78;;;3.85;50.80
15694;BME280;7947;48.834;9.132;2024-01-10T14:01:10;99034.19;;;4.06;50.24
15694;BME280;7947;48.834;9.132;2024-01-10T14:04:56;99040.34;;;3.93;50.83
15694;BME280;7947;48.834;9.132;2024-01-10T14:08:29;99034.03;;;3.88;50.79
15694;BME280;7947;48.834;9.132;2024-01-10T14:16:04;99034.78;;;4.08;50.25
15694;BME280;7947;48.834;9.132;2024-01-10T14:19:47;99030.09;;;4.10;49.60
15694;BME280;7947;48.834;9.132;2024-01-10T14:24:01;99039.34;;;3.94;49.74
15694;BME280;7947;48.834;9.132;2024-01-10T14:27:23;99041.63;;;3.84;50.16
15694;BME280;7947;48.834;9.132;2024-01-10T14:30:51;99044.72;;;3.75;51.25
15694;BME280;7947;48.834;9.132;2024-01-10T14:34:55;99048.19;;;3.62;50.79
15694;BME280;7947;48.834;9.132;2024-01-10T14:39:04;99048.00;;;3.50;51.46
15694;BME280;7947;48.834;9.132;2024-01-10T14:43:13;99055.16;;;3.37;52.22
15694;BME280;7947;48.834;9.132;2024-01-10T15:00:54;99048.69;;;2.81;53.25
15694;BME280;7947;48.834;9.132;2024-01-10T15:04:31;99059.06;;;2.75;53.72
15694;BME280;7947;48.834;9.132;2024-01-10T15:08:10;99057.81;;;2.71;53.85
15694;BME280;7947;48.834;9.132;2024-01-10T15:12:16;99061.69;;;2.75;54.34
15694;BME280;7947;48.834;9.132;2024-01-10T15:15:40;99059.63;;;2.58;55.53
15694;BME280;7947;48.834;9.132;2024-01-10T15:19:23;99077.28;;;2.31;56.08
15694;BME280;7947;48.834;9.132;2024-01-10T15:22:56;99076.63;;;2.23;56.37
15694;BME280;7947;48.834;9.132;2024-01-10T15:26:32;99075.75;;;2.03;58.03
15694;BME280;7947;48.834;9.132;2024-01-10T15:30:12;99079.13;;;1.83;58.88
15694;BME280;7947;48.834;9.132;2024-01-10T15:33:59;99078.03;;;1.71;60.35
15694;BME280;7947;48.834;9.132;2024-01-10T15:42:12;99083.13;;;1.45;60.86
15694;BME280;7947;48.834;9.132;2024-01-10T15:45:44;99096.78;;;1.21;62.09
15694;BME280;7947;48.834;9.132;2024-01-10T15:49:48;99100.00;;;1.17;62.49
15694;BME280;7947;48.834;9.132;2024-01-10T15:53:11;99098.09;;;1.04;62.81
15694;BME280;7947;48.834;9.132;2024-01-10T16:00:36;99102.66;;;0.96;62.97
15694;BME280;7947;48.834;9.132;2024-01-10T16:04:33;99106.88;;;0.90;63.35
15694;BME280;7947;48.834;9.132;2024-01-10T16:08:41;99110.66;;;0.81;63.09
15694;BME280;7947;48.834;9.132;2024-01-10T16:12:10;99121.06;;;0.68;63.88
15694;BME280;7947;48.834;9.132;2024-01-10T16:19:27;99109.00;;;0.59;64.88
15694;BME280;7947;48.834;9.132;2024-01-10T16:23:16;99116.28;;;0.57;65.25
15694;BME280;7947;48.834;9.132;2024-01-10T16:26:47;99108.13;;;0.52;64.55
15694;BME280;7947;48.834;9.132;2024-01-10T16:30:34;99111.13;;;0.49;65.15
15694;BME280;7947;48.834;9.132;2024-01-10T16:34:11;99105.63;;;0.29;64.76
15694;BME280;7947;48.834;9.132;2024-01-10T16:37:40;99114.25;;;0.38;65.45
15694;BME280;7947;48.834;9.132;2024-01-10T16:41:04;99120.97;;;0.40;65.77
15694;BME280;7947;48.834;9.132;2024-01-10T16:44:30;99115.53;;;0.42;65.28
15694;BME280;7947;48.834;9.132;2024-01-10T16:48:02;99118.78;;;0.44;65.19
15694;BME280;7947;48.834;9.132;2024-01-10T16:51:58;99120.66;;;0.29;65.45
15694;BME280;7947;48.834;9.132;2024-01-10T16:56:01;99118.47;;;0.18;65.67
15694;BME280;7947;48.834;9.132;2024-01-10T16:59:42;99116.84;;;0.17;65.57
15694;BME280;7947;48.834;9.132;2024-01-10T17:03:21;99115.66;;;0.19;65.28
15694;BME280;7947;48.834;9.132;2024-01-10T17:06:42;99126.47;;;0.24;65.78
15694;BME280;7947;48.834;9.132;2024-01-10T17:10:22;99125.63;;;0.24;65.62
15694;BME280;7947;48.834;9.132;2024-01-10T17:14:04;99125.19;;;0.20;65.82
15694;BME280;7947;48.834;9.132;2024-01-10T17:17:39;99128.56;;;0.14;65.58
15694;BME280;7947;48.834;9.132;2024-01-10T17:21:26;99133.50;;;0.03;65.87
15694;BME280;7947;48.834;9.132;2024-01-10T17:25:34;99134.50;;;0.02;66.54
15694;BME280;7947;48.834;9.132;2024-01-10T17:29:25;99136.22;;;-0.06;66.58
15694;BME280;7947;48.834;9.132;2024-01-10T17:33:22;99142.69;;;-0.08;65.90
15694;BME280;7947;48.834;9.132;2024-01-10T17:37:10;99148.50;;;-0.13;66.76
15694;BME280;7947;48.834;9.132;2024-01-10T17:41:30;99138.16;;;-0.14;66.43
15694;BME280;7947;48.834;9.132;2024-01-10T17:49:26;99142.03;;;-0.25;66.27
15694;BME280;7947;48.834;9.132;2024-01-10T17:53:01;99136.56;;;-0.23;66.69
15694;BME280;7947;48.834;9.132;2024-01-10T17:57:06;99138.41;;;-0.24;67.01
15694;BME280;7947;48.834;9.132;2024-01-10T18:00:52;99139.22;;;-0.38;66.00
15694;BME280;7947;48.834;9.132;2024-01-10T18:04:38;99133.84;;;-0.44;67.01
15694;BME280;7947;48.834;9.132;2024-01-10T18:08:01;99140.84;;;-0.51;66.89
15694;BME280;7947;48.834;9.132;2024-01-10T18:12:10;99135.56;;;-0.51;67.71
15694;BME280;7947;48.834;9.132;2024-01-10T18:15:38;99144.81;;;-0.55;68.08
15694;BME280;7947;48.834;9.132;2024-01-10T18:18:55;99139.38;;;-0.54;67.60
15694;BME280;7947;48.834;9.132;2024-01-10T18:22:30;99137.28;;;-0.58;67.64
15694;BME280;7947;48.834;9.132;2024-01-10T18:26:19;99137.56;;;-0.53;67.82
15694;BME280;7947;48.834;9.132;2024-01-10T18:29:53;99142.16;;;-0.70;67.40
15694;BME280;7947;48.834;9.132;2024-01-10T18:33:15;99134.28;;;-0.70;67.42
15694;BME280;7947;48.834;9.132;2024-01-10T18:36:45;99145.78;;;-0.71;67.42
15694;BME280;7947;48.834;9.132;2024-01-10T18:40:17;99139.94;;;-0.81;67.93
15694;BME280;7947;48.834;9.132;2024-01-10T18:43:48;99145.06;;;-0.79;67.07
15694;BME280;7947;48.834;9.132;2024-01-10T18:47:08;99150.38;;;-0.87;68.87
15694;BME280;7947;48.834;9.132;2024-01-10T18:50:37;99145.06;;;-0.79;68.21
15694;BME280;7947;48.834;9.132;2024-01-10T18:53:55;99143.75;;;-0.83;68.51
15694;BME280;7947;48.834;9.132;2024-01-10T19:24:42;99146.00;;;-0.95;68.45
15694;BME280;7947;48.834;9.132;2024-01-10T19:27:58;99144.53;;;-0.98;68.62
15694;BME280;7947;48.834;9.132;2024-01-10T19:31:15;99154.75;;;-1.03;68.82
15694;BME280;7947;48.834;9.132;2024-01-10T19:34:48;99140.84;;;-1.11;68.45
15694;BME280;7947;48.834;9.132;2024-01-10T19:38:37;99148.69;;;-1.03;68.21
15694;BME280;7947;48.834;9.132;2024-01-10T19:42:21;99143.59;;;-1.05;68.48
15694;BME280;7947;48.834;9.132;2024-01-10T19:46:02;99151.31;;;-1.03;67.57
15694;BME280;7947;48.834;9.132;2024-01-10T19:49:27;99157.97;;;-1.15;68.03
15694;BME280;7947;48.834;9.132;2024-01-10T19:52:55;99160.63;;;-1.15;68.74
15694;BME280;7947;48.834;9.132;2024-01-10T20:07:35;99158.84;;;-1.23;69.00
15694;BME280;7947;48.834;9.132;2024-01-10T20:11:18;99152.78;;;-1.23;68.60
15694;BME280;7947;48.834;9.132;2024-01-10T20:28:06;99155.03;;;-1.43;69.39
15694;BME280;7947;48.834;9.132;2024-01-10T20:32:08;99157.19;;;-1.46;69.01
15694;BME280;7947;48.834;9.132;2024-01-10T20:36:09;99156.22;;;-1.45;69.68
15694;BME280;7947;48.834;9.132;2024-01-10T20:40:41;99165.81;;;-1.60;69.58
15694;BME280;7947;48.834;9.132;2024-01-10T20:44:45;99165.94;;;-1.54;70.05
15694;BME280;7947;48.834;9.132;2024-01-10T20:54:16;99170.38;;;-1.54;70.18
15694;BME280;7947;48.834;9.132;2024-01-10T20:58:49;99168.41;;;-1.52;70.41
15694;BME280;7947;48.834;9.132;2024-01-10T21:03:00;99169.69;;;-1.48;70.18
15694;BME280;7947;48.834;9.132;2024-01-10T21:07:42;99165.47;;;-1.57;69.93
15694;BME280;7947;48.834;9.132;2024-01-10T21:12:17;99161.13;;;-1.73;69.63
15694;BME280;7947;48.834;9.132;2024-01-10T21:16:34;99166.22;;;-1.79;69.83
15694;BME280;7947;48.834;9.132;2024-01-10T21:21:14;99171.16;;;-1.76;70.73
15694;BME280;7947;48.834;9.132;2024-01-10T21:29:45;99168.38;;;-1.83;71.15
15694;BME280;7947;48.834;9.132;2024-01-10T21:33:42;99161.72;;;-2.02;70.63
15694;BME280;7947;48.834;9.132;2024-01-10T21:37:22;99164.34;;;-2.02;69.85
15694;BME280;7947;48.834;9.132;2024-01-10T21:41:10;99157.84;;;-2.22;71.26
15694;BME280;7947;48.834;9.132;2024-01-10T22:12:47;99170.31;;;-2.16;70.99
15694;BME280;7947;48.834;9.132;2024-01-10T22:16:28;99167.50;;;-2.14;71.74
15694;BME280;7947;48.834;9.132;2024-01-10T22:21:00;99176.91;;;-2.28;70.81
15694;BME280;7947;48.834;9.132;2024-01-10T22:26:02;99178.56;;;-2.27;71.05
15694;BME280;7947;48.834;9.132;2024-01-10T22:34:52;99177.06;;;-2.21;70.12
15694;BME280;7947;48.834;9.132;2024-01-10T22:38:46;99184.78;;;-2.44;71.75
15694;BME280;7947;48.834;9.132;2024-01-10T22:42:52;99182.31;;;-2.29;71.02
15694;BME280;7947;48.834;9.132;2024-01-10T22:46:51;99175.91;;;-2.27;70.71
15694;BME280;7947;48.834;9.132;2024-01-10T22:50:43;99182.31;;;-2.29;71.47
15694;BME280;7947;48.834;9.132;2024-01-10T22:54:20;99177.91;;;-2.45;71.96
15694;BME280;7947;48.834;9.132;2024-01-10T22:58:49;99179.53;;;-2.36;71.44
15694;BME280;7947;48.834;9.132;2024-01-10T23:02:57;99186.25;;;-2.25;71.66
15694;BME280;7947;48.834;9.132;2024-01-10T23:07:02;99184.97;;;-2.45;72.41
15694;BME280;7947;48.834;9.132;2024-01-10T23:10:48;99193.66;;;-2.37;71.94
15694;BME280;7947;48.834;9.132;2024-01-10T23:14:40;99180.03;;;-2.32;71.35
15694;BME280;7947;48.834;9.132;2024-01-10T23:39:23;99170.38;;;-2.56;72.26
15694;BME280;7947;48.834;9.132;2024-01-10T23:43:23;99160.06;;;-2.65;73.49
15694;BME280;7947;48.834;9.132;2024-01-10T23:46:49;99168.06;;;-2.51;72.51
15694;BME280;7947;48.834;9.132;2024-01-10T23:50:30;99164.81;;;-2.61;72.34
15694;BME280;7947;48.834;9.132;2024-01-10T23:54:17;99171.72;;;-2.68;72.76
15694;BME280;7947;48.834;9.132;2024-01-10T23:58:07;99164.00;;;-2.78;73.98
